EWG2464 EDDS-EGLL
Flight info
| Callsign | EWG2464 |
|---|---|
| Flight time | N/A |
| Altitude | 38000 |
| Route | VESID4B VESID Y127 BANIM L608 LIRSU DCT DENUT L608 LOGAN |
| Aircraft | A319/M-SDE3FGHIRWY/LB1 |
Departure
| Time | 2026-05-04 21:58 |
|---|---|
| Airport | Stuttgart Airport (EDDS) |
Arrival
| Time | N/A |
|---|---|
| Airport | London Heathrow Airport (EGLL) |
| Time | Latitude | Longitude | Altitude | Speed | Heading |
|---|---|---|---|---|---|
| 2026-05-04 21:32 | 48.68954 | 9.19714 | 1313 ft | 0 kts | 344° |
| 2026-05-04 21:52 | 48.68936 | 9.19722 | 1311 ft | 4 kts | 344° |
| 2026-05-04 21:52 | 48.68911 | 9.19733 | 1309 ft | 2 kts | 344° |
| 2026-05-04 21:52 | 48.68890 | 9.19739 | 1308 ft | 4 kts | 12° |
| 2026-05-04 21:52 | 48.68872 | 9.19721 | 1307 ft | 4 kts | 68° |
| 2026-05-04 21:53 | 48.68868 | 9.19708 | 1308 ft | 1 kts | 74° |
| 2026-05-04 21:54 | 48.68875 | 9.19745 | 1306 ft | 8 kts | 74° |
| 2026-05-04 21:55 | 48.68889 | 9.19841 | 1303 ft | 10 kts | 96° |
| 2026-05-04 21:55 | 48.68819 | 9.19912 | 1297 ft | 15 kts | 146° |
| 2026-05-04 21:55 | 48.68730 | 9.19967 | 1292 ft | 11 kts | 166° |
| 2026-05-04 21:55 | 48.68693 | 9.19983 | 1289 ft | 0 kts | 164° |
| 2026-05-04 21:56 | 48.68667 | 9.19993 | 1288 ft | 8 kts | 164° |
| 2026-05-04 21:56 | 48.68587 | 9.20033 | 1286 ft | 14 kts | 142° |
| 2026-05-04 21:56 | 48.68591 | 9.20111 | 1282 ft | 0 kts | 73° |
| 2026-05-04 21:57 | 48.68592 | 9.20116 | 1282 ft | 0 kts | 73° |
| 2026-05-04 21:58 | 48.68633 | 9.20327 | 1278 ft | 56 kts | 73° |
| 2026-05-04 21:58 | 48.68804 | 9.21235 | 1267 ft | 120 kts | 74° |
| 2026-05-04 21:58 | 48.69079 | 9.22695 | 1383 ft | 152 kts | 74° |
| 2026-05-04 21:58 | 48.69329 | 9.24186 | 1889 ft | 146 kts | 75° |
| 2026-05-04 21:59 | 48.69592 | 9.25663 | 2272 ft | 148 kts | 73° |
| 2026-05-04 21:59 | 48.69863 | 9.27160 | 2577 ft | 148 kts | 75° |
| 2026-05-04 21:59 | 48.70171 | 9.28705 | 2777 ft | 160 kts | 72° |
| 2026-05-04 21:59 | 48.70510 | 9.30417 | 2912 ft | 180 kts | 72° |
| 2026-05-04 22:00 | 48.70889 | 9.32376 | 3014 ft | 208 kts | 72° |
| 2026-05-04 22:00 | 48.71316 | 9.34589 | 3329 ft | 229 kts | 73° |
| 2026-05-04 22:00 | 48.71782 | 9.36998 | 3824 ft | 244 kts | 72° |
| 2026-05-04 22:00 | 48.72272 | 9.39484 | 4598 ft | 248 kts | 70° |
| 2026-05-04 22:01 | 48.73214 | 9.41650 | 5339 ft | 251 kts | 37° |
| 2026-05-04 22:01 | 48.74825 | 9.42611 | 6097 ft | 253 kts | 9° |
| 2026-05-04 22:01 | 48.76568 | 9.43015 | 6911 ft | 254 kts | 8° |
| 2026-05-04 22:01 | 48.78351 | 9.43088 | 7617 ft | 262 kts | 352° |
| 2026-05-04 22:02 | 48.80153 | 9.42264 | 8096 ft | 279 kts | 333° |
| 2026-05-04 22:02 | 48.81916 | 9.40925 | 8847 ft | 286 kts | 332° |
| 2026-05-04 22:02 | 48.83715 | 9.39582 | 9623 ft | 291 kts | 332° |
| 2026-05-04 22:02 | 48.85567 | 9.38219 | 10193 ft | 305 kts | 332° |
| 2026-05-04 22:03 | 48.87540 | 9.36730 | 10440 ft | 328 kts | 328° |
| 2026-05-04 22:03 | 48.89385 | 9.34593 | 10876 ft | 339 kts | 313° |
| 2026-05-04 22:03 | 48.90829 | 9.31825 | 11536 ft | 340 kts | 298° |
| 2026-05-04 22:03 | 48.91799 | 9.28554 | 12253 ft | 340 kts | 284° |
| 2026-05-04 22:04 | 48.92271 | 9.25040 | 12965 ft | 340 kts | 276° |
| 2026-05-04 22:04 | 48.92654 | 9.21467 | 13653 ft | 343 kts | 276° |
| 2026-05-04 22:04 | 48.93041 | 9.17863 | 14314 ft | 346 kts | 276° |
| 2026-05-04 22:04 | 48.93429 | 9.14232 | 14968 ft | 349 kts | 276° |
| 2026-05-04 22:05 | 48.93820 | 9.10573 | 15604 ft | 352 kts | 276° |
| 2026-05-04 22:05 | 48.94213 | 9.06869 | 16230 ft | 355 kts | 276° |
| 2026-05-04 22:05 | 48.94610 | 9.03142 | 16848 ft | 358 kts | 276° |